Time;durP1;ratioP1;P1;durP2;ratioP2;P2;SDS_P1;SDS_P2;PMS_P1;PMS_P2;Temp;Humidity;BMP_temperature;BMP_pressure;BME280_temperature;BME280_humidity;BME280_pressure;Samples;Min_cycle;Max_cycle;Signal;HPM_P1;HPM_P2
2021/12/21 00:05:28;;;;;;;46.30;43.40;;;;;;;6.78;100.00;102736.31;1875838;76;86493;-78
2021/12/21 00:11:13;;;;;;;44.13;40.80;;;;;;;6.81;100.00;102729.82;1931723;73;86415;-77
2021/12/21 00:17:12;;;;;;;46.33;43.23;;;;;;;6.93;100.00;102727.25;1980800;71;39669;-79
2021/12/21 00:29:01;;;;;;;46.63;43.47;;;;;;;6.86;100.00;102725.03;1950870;71;39538;-78
2021/12/21 00:34:45;;;;;;;46.30;43.37;;;;;;;6.57;100.00;102725.50;1838289;76;86057;-77
2021/12/21 00:40:30;;;;;;;47.17;44.17;;;;;;;6.63;100.00;102719.95;1880015;74;86343;-77
2021/12/21 00:46:15;;;;;;;45.93;42.77;;;;;;;6.78;100.00;102715.59;1903547;72;86773;-78
2021/12/21 00:52:00;;;;;;;47.30;44.50;;;;;;;6.60;100.00;102705.73;1971347;71;40535;-78
2021/12/21 00:57:44;;;;;;;46.97;43.77;;;;;;;6.78;100.00;102703.16;1842444;76;86075;-77
2021/12/21 01:03:30;;;;;;;47.70;44.47;;;;;;;6.79;100.00;102686.39;1887038;73;86415;-77
2021/12/21 01:09:32;;;;;;;47.13;43.93;;;;;;;6.76;100.00;102688.74;1942727;71;85392;-79
2021/12/21 01:15:14;;;;;;;46.73;43.40;;;;;;;6.81;100.00;102690.30;1984322;71;40346;-76
2021/12/21 01:21:03;;;;;;;46.20;43.20;;;;;;;6.69;100.00;102689.27;1893693;74;87187;-78
2021/12/21 01:26:49;;;;;;;47.80;44.60;;;;;;;6.66;100.00;102686.94;1881218;75;86804;-77
2021/12/21 01:32:39;;;;;;;47.67;44.73;;;;;;;6.72;100.00;102685.53;1840540;76;86798;-77
2021/12/21 01:38:23;;;;;;;44.27;41.57;;;;;;;6.73;100.00;102685.00;1909006;74;86370;-77
2021/12/21 01:44:14;;;;;;;49.60;46.03;;;;;;;6.57;100.00;102681.31;1984762;71;39632;-77
2021/12/21 01:49:51;;;;;;;46.83;44.00;;;;;;;6.65;100.00;102676.42;1975777;71;39677;-78
2021/12/21 01:55:37;;;;;;;48.13;45.17;;;;;;;6.59;100.00;102680.59;1886976;74;85503;-75
2021/12/21 02:01:24;;;;;;;48.63;45.73;;;;;;;6.65;100.00;102674.19;1808685;78;86940;-77
2021/12/21 02:07:11;;;;;;;47.43;44.27;;;;;;;6.68;100.00;102672.37;1923143;71;86803;-77
2021/12/21 02:12:56;;;;;;;47.73;44.77;;;;;;;6.66;100.00;102672.61;1975135;71;40528;-78
2021/12/21 02:18:50;;;;;;;50.67;47.40;;;;;;;6.64;100.00;102665.05;1839489;76;86226;-77
2021/12/21 02:24:41;;;;;;;47.23;44.13;;;;;;;6.60;100.00;102664.31;1803693;78;86722;-79
2021/12/21 02:30:19;;;;;;;50.90;47.43;;;;;;;6.57;100.00;102657.84;1919942;71;86083;-78
2021/12/21 02:36:04;;;;;;;49.17;45.87;;;;;;;6.57;100.00;102661.46;1975775;71;39560;-76
2021/12/21 02:41:48;;;;;;;48.13;45.13;;;;;;;6.61;100.00;102669.63;1828033;76;86355;-77
2021/12/21 02:47:33;;;;;;;47.73;44.73;;;;;;;6.57;100.00;102658.70;1801478;78;86370;-78
2021/12/21 02:53:17;;;;;;;48.20;44.80;;;;;;;6.58;100.00;102656.27;1919932;71;86655;-77
2021/12/21 02:59:02;;;;;;;49.57;46.67;;;;;;;6.65;100.00;102664.00;1984108;71;39581;-76
2021/12/21 03:04:49;;;;;;;49.27;46.03;;;;;;;6.50;100.00;102652.35;1849616;76;86472;-77
2021/12/21 03:10:33;;;;;;;48.90;45.50;;;;;;;6.72;100.00;102651.54;1799464;78;86233;-75
2021/12/21 03:16:20;;;;;;;50.00;46.73;;;;;;;6.60;100.00;102651.89;1939245;72;86285;-77
2021/12/21 03:22:06;;;;;;;50.27;46.83;;;;;;;6.51;100.00;102654.55;1915873;74;86417;-78
2021/12/21 03:27:51;;;;;;;51.23;47.93;;;;;;;6.52;100.00;102652.12;1983432;71;39565;-78
2021/12/21 03:33:38;;;;;;;51.57;48.17;;;;;;;6.43;100.00;102650.11;1887701;74;86676;-79
2021/12/21 03:39:23;;;;;;;52.63;49.40;;;;;;;6.47;100.00;102651.91;1882188;74;85533;-77
2021/12/21 03:45:10;;;;;;;53.93;50.40;;;;;;;6.46;100.00;102646.91;1916566;73;86207;-76
2021/12/21 03:50:54;;;;;;;51.63;48.07;;;;;;;6.43;100.00;102647.88;1982704;71;39918;-76
2021/12/21 03:59:53;;;;;;;51.23;47.80;;;;;;;6.35;100.00;102655.84;1933348;71;39751;-78
2021/12/21 04:05:37;;;;;;;50.50;46.93;;;;;;;6.36;100.00;102648.75;1880887;74;86562;-78
2021/12/21 04:11:20;;;;;;;50.90;47.50;;;;;;;6.37;100.00;102640.77;1911392;72;86447;-77
2021/12/21 04:17:06;;;;;;;51.57;47.97;;;;;;;6.30;100.00;102639.93;1909053;72;86340;-76
2021/12/21 04:22:50;;;;;;;51.33;47.73;;;;;;;6.53;100.00;102631.73;1810485;78;86314;-76
2021/12/21 04:28:34;;;;;;;50.70;47.27;;;;;;;6.25;100.00;102641.62;1800972;78;86226;-78
2021/12/21 04:34:18;;;;;;;49.57;46.13;;;;;;;6.46;100.00;102636.43;1944400;73;86430;-76
2021/12/21 04:40:06;;;;;;;48.93;45.87;;;;;;;6.34;100.00;102634.83;1952563;71;39653;-77
2021/12/21 04:45:48;;;;;;;47.97;44.70;;;;;;;6.30;100.00;102647.36;1830414;76;86353;-78
2021/12/21 04:51:32;;;;;;;51.30;47.90;;;;;;;6.11;100.00;102640.80;1800243;78;85444;-77
2021/12/21 04:57:16;;;;;;;50.77;47.43;;;;;;;6.04;100.00;102636.31;1918995;73;86297;-77
2021/12/21 05:03:01;;;;;;;48.50;44.90;;;;;;;6.15;100.00;102635.17;1946186;72;39651;-77
2021/12/21 05:08:52;;;;;;;50.37;46.70;;;;;;;6.03;100.00;102627.22;1905366;74;86185;-76
2021/12/21 05:14:32;;;;;;;53.47;49.83;;;;;;;5.91;100.00;102624.22;1870877;75;85611;-75
2021/12/21 05:20:16;;;;;;;50.83;47.20;;;;;;;5.92;100.00;102630.59;1915708;72;86042;-78
2021/12/21 05:26:00;;;;;;;50.93;46.97;;;;;;;5.90;100.00;102645.14;1984048;71;40560;-77
2021/12/21 05:31:44;;;;;;;50.03;46.17;;;;;;;6.15;100.00;102643.45;1949929;72;86380;-76
2021/12/21 05:37:28;;;;;;;49.77;46.07;;;;;;;5.97;100.00;102646.51;1883231;73;86221;-78
2021/12/21 05:43:14;;;;;;;53.10;49.13;;;;;;;5.88;100.00;102649.48;1918222;72;85938;-77
2021/12/21 05:48:58;;;;;;;50.47;46.77;;;;;;;5.98;100.00;102650.97;1984334;71;39544;-76
2021/12/21 05:54:41;;;;;;;48.87;45.37;;;;;;;6.01;100.00;102648.64;1824638;75;86743;-78
2021/12/21 06:00:28;;;;;;;53.20;49.20;;;;;;;5.91;100.00;102647.66;1835888;76;86325;-79
2021/12/21 06:06:16;;;;;;;51.70;47.53;;;;;;;5.88;100.00;102647.24;1934750;73;85477;-79
2021/12/21 06:12:09;;;;;;;48.20;44.70;;;;;;;6.00;100.00;102656.58;1978944;71;40255;-77
2021/12/21 06:30:03;;;;;;;48.80;44.90;;;;;;;5.93;100.00;102664.02;1981150;71;40233;-78
2021/12/21 06:35:49;;;;;;;50.57;46.60;;;;;;;5.78;100.00;102668.81;1846224;77;86081;-79
2021/12/21 06:41:35;;;;;;;48.87;45.27;;;;;;;5.79;100.00;102673.28;1807760;78;86611;-76
2021/12/21 06:53:26;;;;;;;49.67;45.77;;;;;;;5.85;100.00;102676.07;1813787;77;86207;-77
2021/12/21 06:59:08;;;;;;;49.97;46.17;;;;;;;5.85;100.00;102673.31;1903838;72;85804;-78
2021/12/21 07:04:53;;;;;;;51.57;47.57;;;;;;;5.94;100.00;102685.03;1984563;71;39615;-77
2021/12/21 07:10:41;;;;;;;50.23;46.43;;;;;;;5.92;100.00;102694.88;1846891;76;86749;-76
2021/12/21 07:22:30;;;;;;;50.63;46.87;;;;;;;6.26;100.00;102693.00;1883972;73;86507;-76
2021/12/21 07:28:14;;;;;;;51.57;47.87;;;;;;;5.94;100.00;102697.44;1906005;73;86182;-76
2021/12/21 07:33:59;;;;;;;52.13;48.33;;;;;;;5.91;100.00;102699.22;1950751;70;39566;-76
2021/12/21 07:39:43;;;;;;;50.70;46.90;;;;;;;5.87;100.00;102697.94;1825865;76;85772;-77
2021/12/21 07:45:27;;;;;;;49.63;45.87;;;;;;;5.88;100.00;102699.64;1884506;73;86731;-78
2021/12/21 07:51:13;;;;;;;51.67;47.13;;;;;;;6.03;100.00;102698.95;1912501;74;86189;-75
2021/12/21 07:56:56;;;;;;;51.17;47.30;;;;;;;5.89;100.00;102698.06;1986212;71;39658;-77
2021/12/21 08:02:41;;;;;;;51.90;47.80;;;;;;;5.93;100.00;102702.11;1840975;76;86553;-77
2021/12/21 08:08:30;;;;;;;52.40;48.80;;;;;;;5.95;100.00;102705.48;1885596;74;86442;-78
2021/12/21 08:14:14;;;;;;;51.13;47.43;;;;;;;6.09;100.00;102704.13;1908275;72;86073;-75
2021/12/21 08:19:58;;;;;;;53.10;49.10;;;;;;;6.17;100.00;102705.30;1978807;71;39921;-76
2021/12/21 08:25:42;;;;;;;53.70;49.73;;;;;;;6.09;100.00;102703.60;1969252;71;85947;-76
2021/12/21 08:31:28;;;;;;;54.43;50.43;;;;;;;6.24;100.00;102700.66;1885779;74;85526;-75
2021/12/21 08:37:13;;;;;;;53.00;48.80;;;;;;;6.25;100.00;102694.05;1923315;73;86468;-75
2021/12/21 08:42:57;;;;;;;54.87;50.87;;;;;;;6.24;100.00;102700.66;1973201;71;39494;-75
2021/12/21 08:48:41;;;;;;;54.93;50.93;;;;;;;6.21;100.00;102698.30;1838103;76;86634;-76
2021/12/21 08:54:26;;;;;;;57.93;53.00;;;;;;;6.32;100.00;102693.55;1866925;75;86137;-75
2021/12/21 09:00:17;;;;;;;57.33;52.97;;;;;;;6.44;100.00;102695.13;1932351;73;86161;-76
2021/12/21 09:06:01;;;;;;;60.10;55.43;;;;;;;6.50;100.00;102691.53;1956978;71;40214;-76
2021/12/21 09:11:46;;;;;;;57.37;52.97;;;;;;;6.69;100.00;102693.41;1828909;76;86352;-76
2021/12/21 09:17:31;;;;;;;54.97;50.67;;;;;;;6.72;100.00;102697.11;1883614;74;86816;-75
2021/12/21 09:23:15;;;;;;;56.47;51.73;;;;;;;6.61;100.00;102703.30;1912437;74;86218;-77
2021/12/21 09:29:00;;;;;;;56.37;51.57;;;;;;;6.72;100.00;102700.72;1971302;71;40088;-77
2021/12/21 09:34:45;;;;;;;60.37;55.37;;;;;;;6.79;100.00;102704.87;1970940;71;85612;-76
2021/12/21 09:40:38;;;;;;;61.60;56.43;;;;;;;6.98;100.00;102703.97;1867942;74;86148;-76
2021/12/21 09:46:19;;;;;;;61.63;56.70;;;;;;;6.86;100.00;102708.46;1923307;73;86810;-75
2021/12/21 09:52:03;;;;;;;62.97;57.93;;;;;;;7.01;100.00;102704.09;1966833;71;39491;-76
2021/12/21 09:57:47;;;;;;;65.83;60.90;;;;;;;7.02;100.00;102705.77;1821333;76;86254;-75
2021/12/21 10:03:33;;;;;;;62.13;56.87;;;;;;;6.97;100.00;102713.88;1801585;78;86513;-76
2021/12/21 10:09:29;;;;;;;62.33;57.60;;;;;;;7.09;100.00;102715.75;1914461;72;86939;-75
2021/12/21 10:15:16;;;;;;;60.13;55.13;;;;;;;7.03;100.00;102727.66;1921218;73;85573;-75
2021/12/21 10:21:14;;;;;;;63.10;58.53;;;;;;;7.04;100.00;102719.70;1946169;72;85992;-76
2021/12/21 10:27:10;;;;;;;60.00;55.27;;;;;;;7.15;100.00;102714.87;1980580;71;40495;-77
2021/12/21 10:33:04;;;;;;;62.50;58.03;;;;;;;7.23;100.00;102698.61;1922564;72;39692;-76
2021/12/21 10:38:54;;;;;;;59.97;55.40;;;;;;;7.16;100.00;102685.33;1809518;78;86155;-76
2021/12/21 10:44:47;;;;;;;57.97;53.53;;;;;;;7.26;100.00;102672.75;1847558;76;86237;-76
2021/12/21 10:50:36;;;;;;;63.93;59.13;;;;;;;7.32;100.00;102668.24;1798658;78;85491;-76
2021/12/21 10:56:21;;;;;;;61.20;56.20;;;;;;;7.29;100.00;102664.54;1904205;74;86491;-77
2021/12/21 11:02:12;;;;;;;56.53;51.90;;;;;;;7.36;100.00;102665.91;1919578;72;85766;-77
2021/12/21 11:08:05;;;;;;;55.80;51.60;;;;;;;7.28;100.00;102658.16;1980636;70;39552;-77
2021/12/21 11:13:59;;;;;;;50.60;46.33;;;;;;;7.28;100.00;102644.34;1808527;78;85982;-76
2021/12/21 11:19:51;;;;;;;47.83;44.23;;;;;;;7.22;100.00;102631.42;1882010;75;86777;-76
2021/12/21 11:25:37;;;;;;;48.67;44.90;;;;;;;7.35;100.00;102622.21;1880459;74;86806;-76
2021/12/21 11:31:22;;;;;;;49.37;45.50;;;;;;;7.53;100.00;102616.77;1888705;73;86614;-77
2021/12/21 11:37:23;;;;;;;52.67;48.53;;;;;;;7.48;100.00;102607.47;1912074;74;85476;-77
2021/12/21 11:46:34;;;;;;;52.07;47.80;;;;;;;7.65;100.00;102595.66;1892406;73;86185;-77
2021/12/21 11:52:24;;;;;;;45.47;42.07;;;;;;;7.61;100.00;102589.41;1865590;75;86627;-76
2021/12/21 11:58:19;;;;;;;40.73;37.53;;;;;;;7.51;100.00;102580.21;1911447;74;86842;-78
2021/12/21 12:04:11;;;;;;;39.70;36.40;;;;;;;7.56;100.00;102566.56;1912824;72;86778;-76
2021/12/21 12:10:12;;;;;;;39.67;36.50;;;;;;;7.65;100.00;102554.17;1899398;72;39570;-76
2021/12/21 12:15:57;;;;;;;40.40;37.53;;;;;;;7.70;100.00;102545.20;1982367;71;39434;-75
2021/12/21 12:21:56;;;;;;;35.57;32.67;;;;;;;7.59;100.00;102530.16;1827852;76;86329;-76
2021/12/21 12:27:49;;;;;;;38.60;35.50;;;;;;;7.67;100.00;102523.50;1836973;76;86401;-75
2021/12/21 12:33:42;;;;;;;36.50;33.50;;;;;;;7.66;100.00;102507.44;1807361;78;86327;-78
2021/12/21 12:39:34;;;;;;;37.03;34.37;;;;;;;7.68;100.00;102505.84;1890594;74;86343;-77
2021/12/21 12:45:22;;;;;;;34.23;31.30;;;;;;;7.53;100.00;102520.55;1866418;75;86683;-78
2021/12/21 12:51:11;;;;;;;34.87;32.40;;;;;;;7.57;100.00;102506.02;1910947;73;86264;-74
2021/12/21 12:56:57;;;;;;;32.27;29.37;;;;;;;7.70;100.00;102503.14;1957596;71;39633;-79
2021/12/21 13:02:53;;;;;;;30.20;27.77;;;;;;;7.55;100.00;102497.65;1922089;72;86724;-79
2021/12/21 13:08:42;;;;;;;32.03;29.27;;;;;;;7.54;100.00;102485.73;1824440;76;85682;-75
2021/12/21 13:14:28;;;;;;;33.00;30.53;;;;;;;7.64;100.00;102483.32;1892531;74;86248;-76
2021/12/21 13:20:15;;;;;;;38.00;34.97;;;;;;;7.74;100.00;102475.91;1918524;73;86503;-76
2021/12/21 13:26:02;;;;;;;35.87;33.03;;;;;;;7.54;100.00;102474.67;1978819;71;39631;-76
2021/12/21 13:34:58;;;;;;;37.87;35.10;;;;;;;7.52;100.00;102471.30;1971408;69;39706;-77
2021/12/21 13:37:29;;;;;;;32.93;30.52;;;;;;;7.60;100.00;102471.55;1921286;73;934689;-74
2021/12/21 13:40:02;;;;;;;32.10;29.30;;;;;;;7.66;100.00;102469.25;1916786;73;938715;-77
2021/12/21 13:42:32;;;;;;;32.63;30.13;;;;;;;7.61;100.00;102472.72;1921016;72;936848;-74
2021/12/21 13:45:06;;;;;;;33.80;30.83;;;;;;;7.54;100.00;102472.44;1854085;75;938602;-77
2021/12/21 13:47:41;;;;;;;32.97;30.13;;;;;;;7.58;100.00;102464.85;1928269;73;936723;-75
2021/12/21 13:50:12;;;;;;;32.13;29.53;;;;;;;7.71;100.00;102455.59;1897817;73;938571;-74
2021/12/21 13:52:45;;;;;;;32.07;29.47;;;;;;;7.61;100.00;102452.52;1839982;75;938917;-71
2021/12/21 13:55:24;;;;;;;31.33;29.03;;;;;;;7.61;100.00;102453.36;1814912;77;938690;-72
2021/12/21 14:01:18;;;;;;;34.50;31.37;;;;;;;7.57;100.00;102434.12;1921040;72;86116;-75
2021/12/21 14:07:08;;;;;;;31.97;29.53;;;;;;;7.52;100.00;102431.74;1936385;73;86187;-75
2021/12/21 14:12:59;;;;;;;32.07;29.47;;;;;;;7.67;100.00;102433.61;1986057;71;39578;-77
2021/12/21 14:18:55;;;;;;;32.27;29.63;;;;;;;7.43;100.00;102442.77;1972767;71;39484;-73
2021/12/21 14:24:42;;;;;;;32.83;30.23;;;;;;;7.42;100.00;102447.45;1844113;76;86173;-78
2021/12/21 14:33:49;;;;;;;32.63;30.10;;;;;;;7.44;100.00;102449.47;1856847;76;86612;-74
2021/12/21 14:39:35;;;;;;;30.87;28.53;;;;;;;7.53;100.00;102448.09;1878866;75;86545;-75
2021/12/21 14:45:22;;;;;;;30.83;28.43;;;;;;;7.57;100.00;102450.70;1889190;74;86141;-74
2021/12/21 14:51:11;;;;;;;36.00;33.07;;;;;;;7.50;100.00;102452.70;1914711;74;85715;-73
2021/12/21 14:57:03;;;;;;;34.00;31.23;;;;;;;7.54;100.00;102462.23;1979711;71;39469;-73
2021/12/21 15:02:52;;;;;;;31.63;29.37;;;;;;;7.57;100.00;102449.89;1807106;78;86633;-75
2021/12/21 15:08:38;;;;;;;30.87;28.47;;;;;;;7.45;100.00;102451.14;1857084;76;85342;-76
2021/12/21 15:14:23;;;;;;;31.63;29.20;;;;;;;7.30;100.00;102447.34;1883975;75;86643;-76
2021/12/21 15:20:11;;;;;;;32.87;30.37;;;;;;;7.32;100.00;102445.72;1923040;73;85553;-73
2021/12/21 15:25:56;;;;;;;33.13;30.23;;;;;;;7.15;100.00;102441.28;1946697;71;39569;-74
2021/12/21 15:31:40;;;;;;;34.20;31.20;;;;;;;7.17;100.00;102437.77;1842091;76;86299;-75
2021/12/21 15:37:24;;;;;;;36.77;33.87;;;;;;;7.19;100.00;102448.58;1833144;76;86545;-75
2021/12/21 15:43:09;;;;;;;36.20;33.40;;;;;;;7.10;100.00;102454.91;1915675;72;85591;-71
2021/12/21 15:48:54;;;;;;;35.07;32.07;;;;;;;7.35;100.00;102464.64;1985154;71;39658;-74
2021/12/21 15:54:41;;;;;;;35.57;32.90;;;;;;;6.89;100.00;102462.17;1848591;76;86437;-73
2021/12/21 16:00:25;;;;;;;36.47;33.50;;;;;;;6.81;100.00;102467.42;1881779;74;86254;-73
2021/12/21 16:06:13;;;;;;;39.10;35.93;;;;;;;6.77;100.00;102463.94;1897896;72;87224;-73
2021/12/21 16:11:56;;;;;;;44.83;41.43;;;;;;;6.49;100.00;102445.51;1982742;71;40561;-73
2021/12/21 16:17:40;;;;;;;43.60;40.13;;;;;;;6.20;100.00;102433.97;1843806;75;86489;-75
2021/12/21 16:23:27;;;;;;;46.50;42.77;;;;;;;6.16;100.00;102438.75;1880824;74;86696;-72
2021/12/21 16:29:16;;;;;;;48.50;44.80;;;;;;;6.22;100.00;102438.71;1916532;74;86758;-75
2021/12/21 16:35:01;;;;;;;43.07;39.57;;;;;;;6.17;100.00;102445.94;1980930;71;40379;-73
2021/12/21 16:40:50;;;;;;;47.07;43.17;;;;;;;5.89;100.00;102451.76;1847336;76;86416;-74
2021/12/21 16:46:37;;;;;;;51.00;47.17;;;;;;;5.71;100.00;102457.05;1907226;74;86475;-72
2021/12/21 16:52:22;;;;;;;54.10;49.63;;;;;;;5.59;100.00;102453.25;1881200;73;87039;-71
2021/12/21 16:58:07;;;;;;;52.40;48.60;;;;;;;5.34;100.00;102447.02;1910124;72;85686;-73
2021/12/21 17:03:53;;;;;;;60.60;56.00;;;;;;;5.24;100.00;102460.34;1981496;71;39640;-74
2021/12/21 17:09:38;;;;;;;57.37;53.00;;;;;;;5.32;100.00;102443.61;1880707;74;86187;-75
2021/12/21 17:15:26;;;;;;;58.60;54.07;;;;;;;5.15;100.00;102448.36;1872144;74;85483;-75
2021/12/21 17:21:11;;;;;;;63.50;58.10;;;;;;;4.97;100.00;102459.98;1912024;74;86568;-72
2021/12/21 17:26:55;;;;;;;59.57;54.80;;;;;;;5.16;100.00;102461.94;1984433;71;40469;-71
2021/12/21 17:32:41;;;;;;;62.07;57.17;;;;;;;4.78;100.00;102476.80;1969928;71;85820;-69
2021/12/21 17:38:29;;;;;;;62.50;57.20;;;;;;;4.78;100.00;102474.04;1868714;75;86901;-72
2021/12/21 17:44:13;;;;;;;61.47;56.00;;;;;;;4.77;100.00;102475.61;1917186;72;86140;-73
2021/12/21 17:49:57;;;;;;;60.23;55.33;;;;;;;4.61;100.00;102491.98;1981071;70;39547;-73
2021/12/21 17:55:42;;;;;;;63.43;58.07;;;;;;;4.59;100.00;102491.31;1967665;71;86858;-71
2021/12/21 18:01:26;;;;;;;65.50;59.93;;;;;;;4.53;100.00;102501.27;1879678;74;85702;-73
2021/12/21 18:07:11;;;;;;;62.70;57.33;;;;;;;4.60;100.00;102515.05;1916017;72;86218;-74
2021/12/21 18:12:56;;;;;;;67.33;62.13;;;;;;;4.42;100.00;102512.84;1981018;71;40218;-73
2021/12/21 18:18:46;;;;;;;69.20;63.33;;;;;;;4.30;100.00;102502.09;1839168;76;86337;-73
2021/12/21 18:24:27;;;;;;;68.93;63.17;;;;;;;4.20;100.00;102504.87;1879142;73;86548;-74
2021/12/21 18:30:14;;;;;;;68.20;62.20;;;;;;;4.22;100.00;102489.89;1868145;76;86280;-72
2021/12/21 18:35:59;;;;;;;70.00;64.60;;;;;;;4.09;100.00;102485.16;1921961;71;40387;-74
2021/12/21 18:41:44;;;;;;;70.77;64.87;;;;;;;4.00;100.00;102484.14;1831566;76;86438;-72
2021/12/21 18:47:28;;;;;;;72.30;66.40;;;;;;;3.90;100.00;102480.90;1893013;73;86511;-74
2021/12/21 18:53:12;;;;;;;71.43;65.47;;;;;;;3.71;100.00;102478.88;1792338;78;86428;-74
2021/12/21 18:58:55;;;;;;;75.03;68.20;;;;;;;3.48;100.00;102482.71;1985099;71;39579;-73
2021/12/21 19:04:40;;;;;;;70.70;64.33;;;;;;;3.33;100.00;102478.36;1840433;76;86446;-74
2021/12/21 19:10:25;;;;;;;74.70;67.90;;;;;;;3.22;100.00;102466.00;1861004;77;86323;-71
2021/12/21 19:16:08;;;;;;;77.00;70.33;;;;;;;3.21;100.00;102462.92;1935432;73;86408;-72
2021/12/21 19:21:53;;;;;;;73.07;66.77;;;;;;;3.18;100.00;102478.42;1985389;70;39658;-71
2021/12/21 19:27:39;;;;;;;75.97;69.60;;;;;;;3.07;100.00;102484.45;1879905;74;86571;-75
2021/12/21 19:33:27;;;;;;;70.97;64.37;;;;;;;2.95;100.00;102485.47;1869295;75;86697;-68
2021/12/21 19:39:11;;;;;;;77.00;70.10;;;;;;;2.92;100.00;102482.27;1922859;73;86663;-70
2021/12/21 19:44:59;;;;;;;75.03;68.33;;;;;;;3.05;100.00;102481.03;1979280;71;39632;-73
2021/12/21 19:50:47;;;;;;;75.93;69.10;;;;;;;3.17;100.00;102473.45;1843520;76;86420;-74
2021/12/21 19:56:34;;;;;;;78.03;70.83;;;;;;;2.98;100.00;102465.89;1809787;78;86551;-78
2021/12/21 20:02:18;;;;;;;78.60;71.50;;;;;;;3.10;100.00;102467.58;1917562;74;86769;-73
2021/12/21 20:08:04;;;;;;;83.03;75.43;;;;;;;2.81;100.00;102474.56;1827104;77;86367;-75
2021/12/21 20:13:54;;;;;;;75.53;68.57;;;;;;;2.78;100.00;102477.19;1905827;74;85727;-74
2021/12/21 20:19:44;;;;;;;78.00;70.57;;;;;;;2.81;100.00;102464.44;1843594;76;86221;-80
2021/12/21 20:25:27;;;;;;;76.80;69.90;;;;;;;2.84;100.00;102461.30;1883937;73;86952;-76
2021/12/21 20:31:13;;;;;;;73.90;67.20;;;;;;;2.65;100.00;102478.41;1912220;74;86507;-73
2021/12/21 20:37:00;;;;;;;75.53;68.83;;;;;;;2.55;100.00;102498.42;1981034;71;39434;-69
2021/12/21 20:42:44;;;;;;;77.80;70.77;;;;;;;2.64;100.00;102516.48;1816018;76;85610;-76
2021/12/21 20:48:30;;;;;;;74.03;67.50;;;;;;;2.62;100.00;102518.55;1869077;74;86877;-73
2021/12/21 20:54:13;;;;;;;74.57;67.67;;;;;;;2.46;100.00;102518.77;1910512;74;85563;-70
2021/12/21 20:59:57;;;;;;;74.17;67.73;;;;;;;2.35;100.00;102522.86;1980037;71;39601;-68
2021/12/21 21:05:42;;;;;;;71.97;65.43;;;;;;;2.38;100.00;102523.84;1922241;73;86948;-73
2021/12/21 21:11:27;;;;;;;74.07;67.20;;;;;;;2.01;100.00;102536.28;1907808;73;86365;-72
2021/12/21 21:17:11;;;;;;;72.10;65.90;;;;;;;1.93;100.00;102541.82;1939403;73;86869;-69
2021/12/21 21:22:55;;;;;;;71.53;65.13;;;;;;;1.95;100.00;102546.61;1976235;71;39685;-73
2021/12/21 21:28:43;;;;;;;73.47;67.00;;;;;;;1.99;100.00;102547.42;1834826;76;86653;-73
2021/12/21 21:34:28;;;;;;;71.10;64.53;;;;;;;2.05;100.00;102544.45;1891502;74;86748;-75
2021/12/21 21:40:13;;;;;;;70.20;64.10;;;;;;;1.83;100.00;102552.56;1937430;73;86920;-75
2021/12/21 21:45:58;;;;;;;73.03;66.57;;;;;;;1.74;100.00;102560.52;1946269;71;39712;-75
2021/12/21 21:51:42;;;;;;;71.80;65.40;;;;;;;1.71;100.00;102560.87;1824896;76;86112;-69
2021/12/21 21:57:27;;;;;;;72.90;66.57;;;;;;;1.61;100.00;102565.77;1884925;73;85603;-78
2021/12/21 22:03:11;;;;;;;68.00;61.90;;;;;;;1.49;100.00;102565.87;1914289;74;86842;-75
2021/12/21 22:08:56;;;;;;;69.13;62.83;;;;;;;1.39;100.00;102559.78;1976940;71;39656;-74
2021/12/21 22:14:42;;;;;;;69.63;63.57;;;;;;;1.10;100.00;102576.94;1958365;72;86160;-77
2021/12/21 22:20:26;;;;;;;67.17;60.87;;;;;;;0.95;100.00;102571.03;1904469;74;86016;-74
2021/12/21 22:26:13;;;;;;;69.93;63.83;;;;;;;1.01;100.00;102558.01;1924746;73;86558;-74
2021/12/21 22:31:58;;;;;;;68.80;62.37;;;;;;;1.06;100.00;102567.39;1974714;71;39497;-77
2021/12/21 22:37:43;;;;;;;68.40;62.37;;;;;;;1.20;100.00;102563.85;1827636;76;86040;-74
2021/12/21 22:43:28;;;;;;;68.37;62.37;;;;;;;1.01;100.00;102558.01;1879555;74;85972;-75
2021/12/21 22:49:12;;;;;;;65.60;59.90;;;;;;;1.17;100.00;102563.38;1907224;72;85714;-75
2021/12/21 22:54:55;;;;;;;67.93;62.33;;;;;;;1.15;100.00;102562.72;1979058;71;39535;-70
2021/12/21 23:00:42;;;;;;;65.80;59.97;;;;;;;1.37;100.00;102565.44;1843636;76;86797;-76
2021/12/21 23:06:21;;;;;;;66.70;60.83;;;;;;;1.09;100.00;102563.42;1923004;73;85443;-74
2021/12/21 23:08:51;;;;;;;67.87;61.97;;;;;;;1.10;100.00;102573.34;1848634;75;936002;-74
2021/12/21 23:11:21;;;;;;;65.03;59.50;;;;;;;1.14;100.00;102565.11;1860254;76;937475;-74
2021/12/21 23:13:53;;;;;;;65.08;58.95;;;;;;;1.15;100.00;102566.31;1845338;75;937562;-74
2021/12/21 23:16:24;;;;;;;68.07;62.03;;;;;;;1.16;100.00;102558.92;1856015;75;935471;-74
2021/12/21 23:18:55;;;;;;;66.40;60.20;;;;;;;1.22;100.00;102556.33;1837150;75;937821;-74
2021/12/21 23:21:25;;;;;;;65.03;59.53;;;;;;;1.20;100.00;102546.57;1760224;78;935916;-75
2021/12/21 23:23:55;;;;;;;63.83;57.93;;;;;;;1.12;100.00;102547.49;1790843;76;937700;-73
2021/12/21 23:26:25;;;;;;;66.00;60.17;;;;;;;1.16;100.00;102550.71;1801708;76;936052;-73
2021/12/21 23:28:56;;;;;;;63.27;57.83;;;;;;;1.05;100.00;102538.31;1790979;76;937785;-74
2021/12/21 23:31:26;;;;;;;67.47;61.63;;;;;;;1.13;100.00;102545.09;1803228;77;935940;-74
2021/12/21 23:33:58;;;;;;;63.87;58.42;;;;;;;1.13;100.00;102545.09;1790973;76;938652;-74
2021/12/21 23:36:28;;;;;;;63.40;57.53;;;;;;;1.05;100.00;102536.95;1802326;76;936809;-74
2021/12/21 23:39:00;;;;;;;64.03;58.03;;;;;;;1.09;100.00;102541.02;1790562;76;938793;-74
2021/12/21 23:41:30;;;;;;;60.80;55.40;;;;;;;1.12;100.00;102538.42;1802783;76;937098;-74
2021/12/21 23:44:01;;;;;;;63.10;57.80;;;;;;;1.09;100.00;102540.16;1789660;76;938140;-74
2021/12/21 23:46:32;;;;;;;59.97;55.07;;;;;;;1.15;100.00;102538.09;1801095;76;936852;-74
2021/12/21 23:49:02;;;;;;;61.67;56.37;;;;;;;1.24;100.00;102537.81;1803178;76;938924;-74
2021/12/21 23:54:47;;;;;;;60.53;55.50;;;;;;;1.35;100.00;102523.72;1825156;76;86802;-78
